sensor_id;sensor_type;location;lat;lon;timestamp;temperature;humidity
55135;DHT22;41031;44.750;11.308;2023-09-07T00:00:51;20.50;78.90
55135;DHT22;41031;44.750;11.308;2023-09-07T00:03:18;20.50;79.20
55135;DHT22;41031;44.750;11.308;2023-09-07T00:05:45;20.40;79.40
55135;DHT22;41031;44.750;11.308;2023-09-07T00:08:12;20.40;79.40
55135;DHT22;41031;44.750;11.308;2023-09-07T00:10:39;20.40;79.50
55135;DHT22;41031;44.750;11.308;2023-09-07T00:13:06;20.40;79.60
55135;DHT22;41031;44.750;11.308;2023-09-07T00:15:38;20.40;79.70
55135;DHT22;41031;44.750;11.308;2023-09-07T00:18:05;20.30;79.60
55135;DHT22;41031;44.750;11.308;2023-09-07T00:20:32;20.30;79.50
55135;DHT22;41031;44.750;11.308;2023-09-07T00:23:00;20.30;79.40
55135;DHT22;41031;44.750;11.308;2023-09-07T00:25:28;20.30;79.10
55135;DHT22;41031;44.750;11.308;2023-09-07T00:27:55;20.30;78.90
55135;DHT22;41031;44.750;11.308;2023-09-07T00:30:22;20.30;78.90
55135;DHT22;41031;44.750;11.308;2023-09-07T00:32:49;20.30;79.00
55135;DHT22;41031;44.750;11.308;2023-09-07T00:35:16;20.20;79.10
55135;DHT22;41031;44.750;11.308;2023-09-07T00:37:43;20.20;79.30
55135;DHT22;41031;44.750;11.308;2023-09-07T00:40:10;20.20;79.40
55135;DHT22;41031;44.750;11.308;2023-09-07T00:42:37;20.20;79.50
55135;DHT22;41031;44.750;11.308;2023-09-07T00:45:04;20.20;79.60
55135;DHT22;41031;44.750;11.308;2023-09-07T00:47:34;20.20;79.70
55135;DHT22;41031;44.750;11.308;2023-09-07T00:50:06;20.20;80.00
55135;DHT22;41031;44.750;11.308;2023-09-07T00:52:34;20.10;80.00
55135;DHT22;41031;44.750;11.308;2023-09-07T00:55:03;20.10;80.00
55135;DHT22;41031;44.750;11.308;2023-09-07T00:57:31;20.10;80.00
55135;DHT22;41031;44.750;11.308;2023-09-07T00:59:59;20.00;79.90
55135;DHT22;41031;44.750;11.308;2023-09-07T01:02:26;20.00;79.60
55135;DHT22;41031;44.750;11.308;2023-09-07T01:04:53;19.90;79.10
55135;DHT22;41031;44.750;11.308;2023-09-07T01:07:24;19.90;78.90
55135;DHT22;41031;44.750;11.308;2023-09-07T01:09:56;19.90;79.00
55135;DHT22;41031;44.750;11.308;2023-09-07T01:12:24;19.90;79.10
55135;DHT22;41031;44.750;11.308;2023-09-07T01:14:51;19.80;79.30
55135;DHT22;41031;44.750;11.308;2023-09-07T01:17:20;19.80;79.60
55135;DHT22;41031;44.750;11.308;2023-09-07T01:19:52;19.80;79.80
55135;DHT22;41031;44.750;11.308;2023-09-07T01:22:20;19.80;80.00
55135;DHT22;41031;44.750;11.308;2023-09-07T01:24:51;19.70;80.10
55135;DHT22;41031;44.750;11.308;2023-09-07T01:27:19;19.80;80.30
55135;DHT22;41031;44.750;11.308;2023-09-07T01:29:46;19.70;80.30
55135;DHT22;41031;44.750;11.308;2023-09-07T01:32:13;19.70;80.50
55135;DHT22;41031;44.750;11.308;2023-09-07T01:34:40;19.70;80.70
55135;DHT22;41031;44.750;11.308;2023-09-07T01:37:08;19.70;80.90
55135;DHT22;41031;44.750;11.308;2023-09-07T01:39:36;19.70;80.90
55135;DHT22;41031;44.750;11.308;2023-09-07T01:42:03;19.70;80.70
55135;DHT22;41031;44.750;11.308;2023-09-07T01:44:31;19.70;80.50
55135;DHT22;41031;44.750;11.308;2023-09-07T01:46:58;19.60;80.10
55135;DHT22;41031;44.750;11.308;2023-09-07T01:49:26;19.60;80.00
55135;DHT22;41031;44.750;11.308;2023-09-07T01:51:54;19.60;80.10
55135;DHT22;41031;44.750;11.308;2023-09-07T01:54:21;19.50;80.40
55135;DHT22;41031;44.750;11.308;2023-09-07T01:56:49;19.50;80.70
55135;DHT22;41031;44.750;11.308;2023-09-07T01:59:16;19.50;81.00
55135;DHT22;41031;44.750;11.308;2023-09-07T02:01:43;19.40;81.20
55135;DHT22;41031;44.750;11.308;2023-09-07T02:04:10;19.50;81.50
55135;DHT22;41031;44.750;11.308;2023-09-07T02:06:37;19.50;81.60
55135;DHT22;41031;44.750;11.308;2023-09-07T02:09:04;19.50;82.30
55135;DHT22;41031;44.750;11.308;2023-09-07T02:11:31;19.50;82.40
55135;DHT22;41031;44.750;11.308;2023-09-07T02:13:58;19.50;81.80
55135;DHT22;41031;44.750;11.308;2023-09-07T02:16:25;19.50;81.90
55135;DHT22;41031;44.750;11.308;2023-09-07T02:19:04;19.50;81.80
55135;DHT22;41031;44.750;11.308;2023-09-07T02:21:31;19.50;81.60
55135;DHT22;41031;44.750;11.308;2023-09-07T02:23:58;19.50;81.50
55135;DHT22;41031;44.750;11.308;2023-09-07T02:26:25;19.40;81.40
55135;DHT22;41031;44.750;11.308;2023-09-07T02:28:53;19.40;81.50
55135;DHT22;41031;44.750;11.308;2023-09-07T02:31:20;19.40;81.70
55135;DHT22;41031;44.750;11.308;2023-09-07T02:33:47;19.40;82.00
55135;DHT22;41031;44.750;11.308;2023-09-07T02:36:15;19.40;82.00
55135;DHT22;41031;44.750;11.308;2023-09-07T02:38:42;19.30;82.00
55135;DHT22;41031;44.750;11.308;2023-09-07T02:41:09;19.30;82.10
55135;DHT22;41031;44.750;11.308;2023-09-07T02:43:36;19.30;82.10
55135;DHT22;41031;44.750;11.308;2023-09-07T02:46:03;19.30;82.30
55135;DHT22;41031;44.750;11.308;2023-09-07T02:48:30;19.20;82.50
55135;DHT22;41031;44.750;11.308;2023-09-07T02:50:58;19.20;82.60
55135;DHT22;41031;44.750;11.308;2023-09-07T02:53:26;19.20;82.60
55135;DHT22;41031;44.750;11.308;2023-09-07T02:55:53;19.20;82.70
55135;DHT22;41031;44.750;11.308;2023-09-07T02:58:22;19.20;82.80
55135;DHT22;41031;44.750;11.308;2023-09-07T03:00:51;19.20;82.70
55135;DHT22;41031;44.750;11.308;2023-09-07T03:03:21;19.20;82.60
55135;DHT22;41031;44.750;11.308;2023-09-07T03:05:48;19.20;83.40
55135;DHT22;41031;44.750;11.308;2023-09-07T03:08:15;19.20;82.80
55135;DHT22;41031;44.750;11.308;2023-09-07T03:10:42;19.20;82.90
55135;DHT22;41031;44.750;11.308;2023-09-07T03:13:10;19.20;82.90
55135;DHT22;41031;44.750;11.308;2023-09-07T03:15:38;19.20;82.90
55135;DHT22;41031;44.750;11.308;2023-09-07T03:18:09;19.20;82.90
55135;DHT22;41031;44.750;11.308;2023-09-07T03:20:37;19.10;83.00
55135;DHT22;41031;44.750;11.308;2023-09-07T03:23:05;19.10;83.20
55135;DHT22;41031;44.750;11.308;2023-09-07T03:25:34;19.10;83.50
55135;DHT22;41031;44.750;11.308;2023-09-07T03:28:01;19.10;83.70
55135;DHT22;41031;44.750;11.308;2023-09-07T03:30:28;19.10;83.70
55135;DHT22;41031;44.750;11.308;2023-09-07T03:32:55;19.10;83.60
55135;DHT22;41031;44.750;11.308;2023-09-07T03:35:23;19.10;83.60
55135;DHT22;41031;44.750;11.308;2023-09-07T03:37:50;19.00;83.60
55135;DHT22;41031;44.750;11.308;2023-09-07T03:40:18;19.10;83.80
55135;DHT22;41031;44.750;11.308;2023-09-07T03:42:45;19.00;83.90
55135;DHT22;41031;44.750;11.308;2023-09-07T03:45:13;19.00;84.10
55135;DHT22;41031;44.750;11.308;2023-09-07T03:47:41;19.00;84.30
55135;DHT22;41031;44.750;11.308;2023-09-07T03:50:11;19.00;84.30
55135;DHT22;41031;44.750;11.308;2023-09-07T03:52:38;19.00;84.20
55135;DHT22;41031;44.750;11.308;2023-09-07T03:55:07;19.00;84.30
55135;DHT22;41031;44.750;11.308;2023-09-07T03:57:36;18.90;84.30
55135;DHT22;41031;44.750;11.308;2023-09-07T04:00:04;18.90;84.50
55135;DHT22;41031;44.750;11.308;2023-09-07T04:02:47;18.90;84.80
55135;DHT22;41031;44.750;11.308;2023-09-07T04:05:16;18.80;84.90
55135;DHT22;41031;44.750;11.308;2023-09-07T04:07:45;18.90;84.80
55135;DHT22;41031;44.750;11.308;2023-09-07T04:10:12;18.80;84.70
55135;DHT22;41031;44.750;11.308;2023-09-07T04:12:39;18.80;84.90
55135;DHT22;41031;44.750;11.308;2023-09-07T04:15:09;18.70;85.00
55135;DHT22;41031;44.750;11.308;2023-09-07T04:17:37;18.70;85.20
55135;DHT22;41031;44.750;11.308;2023-09-07T04:20:09;18.70;85.30
55135;DHT22;41031;44.750;11.308;2023-09-07T04:22:39;18.70;85.50
55135;DHT22;41031;44.750;11.308;2023-09-07T04:25:07;18.70;85.60
55135;DHT22;41031;44.750;11.308;2023-09-07T04:27:35;18.70;85.60
55135;DHT22;41031;44.750;11.308;2023-09-07T04:30:05;18.70;85.60
55135;DHT22;41031;44.750;11.308;2023-09-07T04:32:33;18.70;85.60
55135;DHT22;41031;44.750;11.308;2023-09-07T04:35:01;18.70;85.70
55135;DHT22;41031;44.750;11.308;2023-09-07T04:37:30;18.70;85.80
55135;DHT22;41031;44.750;11.308;2023-09-07T04:39:58;18.70;86.00
55135;DHT22;41031;44.750;11.308;2023-09-07T04:42:25;18.70;85.90
55135;DHT22;41031;44.750;11.308;2023-09-07T04:44:52;18.60;85.70
55135;DHT22;41031;44.750;11.308;2023-09-07T04:47:20;18.60;85.90
55135;DHT22;41031;44.750;11.308;2023-09-07T04:49:50;18.60;86.00
55135;DHT22;41031;44.750;11.308;2023-09-07T04:52:20;18.60;85.90
55135;DHT22;41031;44.750;11.308;2023-09-07T04:54:48;18.60;85.80
55135;DHT22;41031;44.750;11.308;2023-09-07T04:57:17;18.60;85.90
55135;DHT22;41031;44.750;11.308;2023-09-07T04:59:47;18.60;86.00
55135;DHT22;41031;44.750;11.308;2023-09-07T05:02:15;18.60;86.20
55135;DHT22;41031;44.750;11.308;2023-09-07T05:04:42;18.60;86.40
55135;DHT22;41031;44.750;11.308;2023-09-07T05:07:10;18.60;86.30
55135;DHT22;41031;44.750;11.308;2023-09-07T05:09:37;18.60;86.40
55135;DHT22;41031;44.750;11.308;2023-09-07T05:12:04;18.60;86.50
55135;DHT22;41031;44.750;11.308;2023-09-07T05:14:32;18.60;86.50
55135;DHT22;41031;44.750;11.308;2023-09-07T05:16:59;18.70;86.70
55135;DHT22;41031;44.750;11.308;2023-09-07T05:19:27;18.70;87.30
55135;DHT22;41031;44.750;11.308;2023-09-07T05:21:56;18.70;86.80
55135;DHT22;41031;44.750;11.308;2023-09-07T05:24:23;18.80;86.60
55135;DHT22;41031;44.750;11.308;2023-09-07T05:26:51;18.80;86.40
55135;DHT22;41031;44.750;11.308;2023-09-07T05:29:18;18.90;86.40
55135;DHT22;41031;44.750;11.308;2023-09-07T05:31:47;19.00;86.30
55135;DHT22;41031;44.750;11.308;2023-09-07T05:34:14;19.10;86.40
55135;DHT22;41031;44.750;11.308;2023-09-07T05:36:42;19.20;86.40
55135;DHT22;41031;44.750;11.308;2023-09-07T05:39:10;19.30;86.00
55135;DHT22;41031;44.750;11.308;2023-09-07T05:41:37;19.50;85.90
55135;DHT22;41031;44.750;11.308;2023-09-07T05:44:04;19.70;86.30
55135;DHT22;41031;44.750;11.308;2023-09-07T05:46:32;19.80;85.20
55135;DHT22;41031;44.750;11.308;2023-09-07T05:48:59;20.00;85.00
55135;DHT22;41031;44.750;11.308;2023-09-07T05:51:27;20.10;84.40
55135;DHT22;41031;44.750;11.308;2023-09-07T05:53:55;20.30;83.80
55135;DHT22;41031;44.750;11.308;2023-09-07T05:56:23;20.60;83.20
55135;DHT22;41031;44.750;11.308;2023-09-07T05:58:50;20.90;81.90
55135;DHT22;41031;44.750;11.308;2023-09-07T06:01:18;21.40;80.40
55135;DHT22;41031;44.750;11.308;2023-09-07T06:03:46;21.90;78.60
55135;DHT22;41031;44.750;11.308;2023-09-07T06:06:14;22.50;77.00
55135;DHT22;41031;44.750;11.308;2023-09-07T06:08:41;23.00;75.30
55135;DHT22;41031;44.750;11.308;2023-09-07T06:11:09;23.50;73.30
55135;DHT22;41031;44.750;11.308;2023-09-07T06:13:37;23.90;71.70
55135;DHT22;41031;44.750;11.308;2023-09-07T06:16:04;24.20;70.80
55135;DHT22;41031;44.750;11.308;2023-09-07T06:18:31;24.30;70.30
55135;DHT22;41031;44.750;11.308;2023-09-07T06:20:59;24.30;70.00
55135;DHT22;41031;44.750;11.308;2023-09-07T06:23:26;24.30;70.10
55135;DHT22;41031;44.750;11.308;2023-09-07T06:25:54;24.20;70.70
55135;DHT22;41031;44.750;11.308;2023-09-07T06:28:21;24.00;71.40
55135;DHT22;41031;44.750;11.308;2023-09-07T06:30:49;23.80;72.10
55135;DHT22;41031;44.750;11.308;2023-09-07T06:33:18;23.60;72.60
55135;DHT22;41031;44.750;11.308;2023-09-07T06:35:46;23.40;73.10
55135;DHT22;41031;44.750;11.308;2023-09-07T06:38:14;23.20;73.50
55135;DHT22;41031;44.750;11.308;2023-09-07T06:40:48;23.10;74.50
55135;DHT22;41031;44.750;11.308;2023-09-07T06:43:17;23.00;75.30
55135;DHT22;41031;44.750;11.308;2023-09-07T06:45:46;23.00;75.60
55135;DHT22;41031;44.750;11.308;2023-09-07T06:48:15;23.00;75.90
55135;DHT22;41031;44.750;11.308;2023-09-07T06:50:42;23.00;76.30
55135;DHT22;41031;44.750;11.308;2023-09-07T06:53:10;23.00;76.30
55135;DHT22;41031;44.750;11.308;2023-09-07T06:55:37;23.00;76.20
55135;DHT22;41031;44.750;11.308;2023-09-07T06:58:05;23.10;76.30
55135;DHT22;41031;44.750;11.308;2023-09-07T07:00:34;23.20;76.30
55135;DHT22;41031;44.750;11.308;2023-09-07T07:03:02;23.20;76.50
55135;DHT22;41031;44.750;11.308;2023-09-07T07:05:29;23.30;76.60
55135;DHT22;41031;44.750;11.308;2023-09-07T07:07:57;23.40;76.50
55135;DHT22;41031;44.750;11.308;2023-09-07T07:10:24;23.50;76.30
55135;DHT22;41031;44.750;11.308;2023-09-07T07:12:52;23.60;76.10
55135;DHT22;41031;44.750;11.308;2023-09-07T07:15:19;23.70;75.80
55135;DHT22;41031;44.750;11.308;2023-09-07T07:17:47;23.80;75.60
55135;DHT22;41031;44.750;11.308;2023-09-07T07:20:15;23.90;75.40
55135;DHT22;41031;44.750;11.308;2023-09-07T07:22:43;24.00;75.20
55135;DHT22;41031;44.750;11.308;2023-09-07T07:25:13;24.10;75.10
55135;DHT22;41031;44.750;11.308;2023-09-07T07:27:41;24.20;74.90
55135;DHT22;41031;44.750;11.308;2023-09-07T07:30:09;24.30;74.40
55135;DHT22;41031;44.750;11.308;2023-09-07T07:32:38;24.50;73.90
55135;DHT22;41031;44.750;11.308;2023-09-07T07:35:06;24.50;73.30
55135;DHT22;41031;44.750;11.308;2023-09-07T07:37:33;24.60;72.90
55135;DHT22;41031;44.750;11.308;2023-09-07T07:40:03;24.80;72.60
55135;DHT22;41031;44.750;11.308;2023-09-07T07:42:31;24.90;71.40
55135;DHT22;41031;44.750;11.308;2023-09-07T07:44:59;25.00;70.80
55135;DHT22;41031;44.750;11.308;2023-09-07T07:47:28;25.10;69.70
55135;DHT22;41031;44.750;11.308;2023-09-07T07:49:55;25.20;69.80
55135;DHT22;41031;44.750;11.308;2023-09-07T07:52:23;25.30;70.10
55135;DHT22;41031;44.750;11.308;2023-09-07T07:54:52;25.40;69.80
55135;DHT22;41031;44.750;11.308;2023-09-07T07:57:20;25.70;69.30
55135;DHT22;41031;44.750;11.308;2023-09-07T07:59:47;25.80;68.50
55135;DHT22;41031;44.750;11.308;2023-09-07T08:02:15;26.00;67.80
55135;DHT22;41031;44.750;11.308;2023-09-07T08:04:43;26.10;67.10
55135;DHT22;41031;44.750;11.308;2023-09-07T08:07:10;26.20;66.10
55135;DHT22;41031;44.750;11.308;2023-09-07T08:09:39;26.30;66.30
55135;DHT22;41031;44.750;11.308;2023-09-07T08:12:07;26.50;65.40
55135;DHT22;41031;44.750;11.308;2023-09-07T08:14:35;26.50;65.10
55135;DHT22;41031;44.750;11.308;2023-09-07T08:17:04;26.60;64.70
55135;DHT22;41031;44.750;11.308;2023-09-07T08:19:31;26.70;64.00
55135;DHT22;41031;44.750;11.308;2023-09-07T08:22:01;26.80;63.60
55135;DHT22;41031;44.750;11.308;2023-09-07T08:24:32;26.90;63.70
55135;DHT22;41031;44.750;11.308;2023-09-07T08:27:00;27.00;63.60
55135;DHT22;41031;44.750;11.308;2023-09-07T08:29:28;27.20;63.20
55135;DHT22;41031;44.750;11.308;2023-09-07T08:31:59;27.30;63.00
55135;DHT22;41031;44.750;11.308;2023-09-07T08:34:30;27.40;63.00
55135;DHT22;41031;44.750;11.308;2023-09-07T08:36:58;27.60;63.20
55135;DHT22;41031;44.750;11.308;2023-09-07T08:39:27;27.70;62.00
55135;DHT22;41031;44.750;11.308;2023-09-07T08:41:56;27.90;62.20
55135;DHT22;41031;44.750;11.308;2023-09-07T08:44:29;28.00;61.40
55135;DHT22;41031;44.750;11.308;2023-09-07T08:46:58;28.10;60.90
55135;DHT22;41031;44.750;11.308;2023-09-07T08:49:27;28.20;60.60
55135;DHT22;41031;44.750;11.308;2023-09-07T08:51:57;28.30;60.50
55135;DHT22;41031;44.750;11.308;2023-09-07T08:54:26;28.20;60.30
55135;DHT22;41031;44.750;11.308;2023-09-07T08:56:53;28.20;60.30
55135;DHT22;41031;44.750;11.308;2023-09-07T08:59:24;28.30;60.50
55135;DHT22;41031;44.750;11.308;2023-09-07T09:01:56;28.40;60.30
55135;DHT22;41031;44.750;11.308;2023-09-07T09:04:25;28.40;60.20
55135;DHT22;41031;44.750;11.308;2023-09-07T09:06:53;28.50;60.50
55135;DHT22;41031;44.750;11.308;2023-09-07T09:09:24;28.60;60.10
55135;DHT22;41031;44.750;11.308;2023-09-07T09:11:52;28.70;60.20
55135;DHT22;41031;44.750;11.308;2023-09-07T09:14:20;28.80;59.80
55135;DHT22;41031;44.750;11.308;2023-09-07T09:16:50;28.90;59.60
55135;DHT22;41031;44.750;11.308;2023-09-07T09:19:18;28.90;59.40
55135;DHT22;41031;44.750;11.308;2023-09-07T09:21:46;29.00;59.70
55135;DHT22;41031;44.750;11.308;2023-09-07T09:24:14;29.10;59.60
55135;DHT22;41031;44.750;11.308;2023-09-07T09:26:42;29.30;59.10
55135;DHT22;41031;44.750;11.308;2023-09-07T09:29:10;29.40;59.00
55135;DHT22;41031;44.750;11.308;2023-09-07T09:31:38;29.50;58.70
55135;DHT22;41031;44.750;11.308;2023-09-07T09:34:06;29.70;58.50
55135;DHT22;41031;44.750;11.308;2023-09-07T09:36:35;29.70;57.10
55135;DHT22;41031;44.750;11.308;2023-09-07T09:39:03;29.70;56.70
55135;DHT22;41031;44.750;11.308;2023-09-07T09:41:32;29.70;56.80
55135;DHT22;41031;44.750;11.308;2023-09-07T09:44:03;29.70;56.80
55135;DHT22;41031;44.750;11.308;2023-09-07T09:46:32;29.80;56.10
55135;DHT22;41031;44.750;11.308;2023-09-07T09:49:00;29.80;56.80
55135;DHT22;41031;44.750;11.308;2023-09-07T09:51:28;29.90;56.70
55135;DHT22;41031;44.750;11.308;2023-09-07T09:53:56;29.90;56.60
55135;DHT22;41031;44.750;11.308;2023-09-07T09:56:23;30.10;56.40
55135;DHT22;41031;44.750;11.308;2023-09-07T09:58:52;30.10;56.00
55135;DHT22;41031;44.750;11.308;2023-09-07T10:01:20;30.20;55.60
55135;DHT22;41031;44.750;11.308;2023-09-07T10:03:50;30.30;54.90
55135;DHT22;41031;44.750;11.308;2023-09-07T10:09:02;30.30;54.10
55135;DHT22;41031;44.750;11.308;2023-09-07T10:11:38;30.30;54.10
55135;DHT22;41031;44.750;11.308;2023-09-07T10:14:07;30.30;54.20
55135;DHT22;41031;44.750;11.308;2023-09-07T10:16:48;30.40;54.30
55135;DHT22;41031;44.750;11.308;2023-09-07T10:19:17;30.50;53.70
55135;DHT22;41031;44.750;11.308;2023-09-07T10:21:44;30.50;53.00
55135;DHT22;41031;44.750;11.308;2023-09-07T10:24:11;30.60;53.70
55135;DHT22;41031;44.750;11.308;2023-09-07T10:26:38;30.70;53.90
55135;DHT22;41031;44.750;11.308;2023-09-07T10:29:05;30.90;53.40
55135;DHT22;41031;44.750;11.308;2023-09-07T10:31:32;31.00;52.70
55135;DHT22;41031;44.750;11.308;2023-09-07T10:34:19;31.10;52.30
55135;DHT22;41031;44.750;11.308;2023-09-07T10:36:48;31.10;50.50
55135;DHT22;41031;44.750;11.308;2023-09-07T10:39:18;31.10;50.90
55135;DHT22;41031;44.750;11.308;2023-09-07T10:41:45;31.10;51.50
55135;DHT22;41031;44.750;11.308;2023-09-07T10:44:13;31.20;50.60
55135;DHT22;41031;44.750;11.308;2023-09-07T10:46:40;31.20;50.90
55135;DHT22;41031;44.750;11.308;2023-09-07T10:49:08;31.20;50.10
55135;DHT22;41031;44.750;11.308;2023-09-07T10:51:42;31.10;50.10
55135;DHT22;41031;44.750;11.308;2023-09-07T10:54:18;31.00;50.70
55135;DHT22;41031;44.750;11.308;2023-09-07T10:56:45;30.90;50.90
55135;DHT22;41031;44.750;11.308;2023-09-07T10:59:13;30.90;51.10
55135;DHT22;41031;44.750;11.308;2023-09-07T11:01:41;31.00;51.40
55135;DHT22;41031;44.750;11.308;2023-09-07T11:04:09;31.20;51.40
55135;DHT22;41031;44.750;11.308;2023-09-07T11:06:39;31.30;51.00
55135;DHT22;41031;44.750;11.308;2023-09-07T11:09:08;31.40;50.90
55135;DHT22;41031;44.750;11.308;2023-09-07T11:11:38;31.40;51.10
55135;DHT22;41031;44.750;11.308;2023-09-07T11:14:06;31.50;50.80
55135;DHT22;41031;44.750;11.308;2023-09-07T11:16:33;31.70;50.30
55135;DHT22;41031;44.750;11.308;2023-09-07T11:19:04;31.70;49.80
55135;DHT22;41031;44.750;11.308;2023-09-07T11:21:34;31.70;50.40
55135;DHT22;41031;44.750;11.308;2023-09-07T11:24:03;31.80;50.00
55135;DHT22;41031;44.750;11.308;2023-09-07T11:26:46;31.60;49.90
55135;DHT22;41031;44.750;11.308;2023-09-07T11:29:15;31.50;50.00
55135;DHT22;41031;44.750;11.308;2023-09-07T11:31:43;31.50;50.30
55135;DHT22;41031;44.750;11.308;2023-09-07T11:34:12;31.50;50.00
55135;DHT22;41031;44.750;11.308;2023-09-07T11:36:41;31.40;50.20
55135;DHT22;41031;44.750;11.308;2023-09-07T11:39:08;31.40;49.90
55135;DHT22;41031;44.750;11.308;2023-09-07T11:41:42;31.50;49.40
55135;DHT22;41031;44.750;11.308;2023-09-07T11:44:11;31.50;49.00
55135;DHT22;41031;44.750;11.308;2023-09-07T11:46:39;31.60;49.00
55135;DHT22;41031;44.750;11.308;2023-09-07T11:49:07;31.70;48.80
55135;DHT22;41031;44.750;11.308;2023-09-07T11:51:36;31.80;48.90
55135;DHT22;41031;44.750;11.308;2023-09-07T11:54:04;32.00;49.10
55135;DHT22;41031;44.750;11.308;2023-09-07T11:56:31;32.00;48.70
55135;DHT22;41031;44.750;11.308;2023-09-07T11:58:59;31.80;48.20
55135;DHT22;41031;44.750;11.308;2023-09-07T12:01:26;31.50;48.30
55135;DHT22;41031;44.750;11.308;2023-09-07T12:03:54;31.30;49.00
55135;DHT22;41031;44.750;11.308;2023-09-07T12:06:22;31.10;49.10
55135;DHT22;41031;44.750;11.308;2023-09-07T12:11:27;30.80;48.30
55135;DHT22;41031;44.750;11.308;2023-09-07T12:13:54;31.00;49.30
55135;DHT22;41031;44.750;11.308;2023-09-07T12:16:21;31.00;48.50
55135;DHT22;41031;44.750;11.308;2023-09-07T12:18:49;31.00;48.20
55135;DHT22;41031;44.750;11.308;2023-09-07T12:21:16;31.10;47.90
55135;DHT22;41031;44.750;11.308;2023-09-07T12:23:43;31.20;47.80
55135;DHT22;41031;44.750;11.308;2023-09-07T12:26:10;31.30;48.00
55135;DHT22;41031;44.750;11.308;2023-09-07T12:28:37;31.40;48.60
55135;DHT22;41031;44.750;11.308;2023-09-07T12:31:04;31.60;47.90
55135;DHT22;41031;44.750;11.308;2023-09-07T12:33:31;31.70;47.80
55135;DHT22;41031;44.750;11.308;2023-09-07T12:36:00;31.80;47.10
55135;DHT22;41031;44.750;11.308;2023-09-07T12:38:27;31.80;47.40
55135;DHT22;41031;44.750;11.308;2023-09-07T12:40:56;31.80;45.60
55135;DHT22;41031;44.750;11.308;2023-09-07T12:43:23;31.60;45.40
55135;DHT22;41031;44.750;11.308;2023-09-07T12:45:52;31.40;45.70
55135;DHT22;41031;44.750;11.308;2023-09-07T12:48:20;31.30;45.40
55135;DHT22;41031;44.750;11.308;2023-09-07T12:50:47;31.30;45.20
55135;DHT22;41031;44.750;11.308;2023-09-07T12:53:14;31.30;45.80
55135;DHT22;41031;44.750;11.308;2023-09-07T12:55:41;31.30;46.30
55135;DHT22;41031;44.750;11.308;2023-09-07T12:58:08;31.30;46.50
55135;DHT22;41031;44.750;11.308;2023-09-07T13:00:35;31.30;46.10
55135;DHT22;41031;44.750;11.308;2023-09-07T13:03:02;31.40;45.40
55135;DHT22;41031;44.750;11.308;2023-09-07T13:05:30;31.40;44.00
55135;DHT22;41031;44.750;11.308;2023-09-07T13:07:57;31.40;45.00
55135;DHT22;41031;44.750;11.308;2023-09-07T13:10:26;31.40;43.90
55135;DHT22;41031;44.750;11.308;2023-09-07T13:12:53;31.40;43.90
55135;DHT22;41031;44.750;11.308;2023-09-07T13:15:20;31.40;44.20
55135;DHT22;41031;44.750;11.308;2023-09-07T13:17:47;31.50;43.90
55135;DHT22;41031;44.750;11.308;2023-09-07T13:20:14;31.50;44.30
55135;DHT22;41031;44.750;11.308;2023-09-07T13:22:41;31.50;44.20
55135;DHT22;41031;44.750;11.308;2023-09-07T13:25:09;31.50;44.40
55135;DHT22;41031;44.750;11.308;2023-09-07T13:27:36;31.50;43.70
55135;DHT22;41031;44.750;11.308;2023-09-07T13:30:06;31.50;44.10
55135;DHT22;41031;44.750;11.308;2023-09-07T13:32:39;31.40;44.30
55135;DHT22;41031;44.750;11.308;2023-09-07T13:35:06;31.40;44.50
55135;DHT22;41031;44.750;11.308;2023-09-07T13:37:33;31.40;44.20
55135;DHT22;41031;44.750;11.308;2023-09-07T13:40:03;31.40;44.60
55135;DHT22;41031;44.750;11.308;2023-09-07T13:42:31;31.50;44.70
55135;DHT22;41031;44.750;11.308;2023-09-07T13:44:58;31.50;44.30
55135;DHT22;41031;44.750;11.308;2023-09-07T13:47:25;31.40;44.50
55135;DHT22;41031;44.750;11.308;2023-09-07T13:49:53;31.40;44.90
55135;DHT22;41031;44.750;11.308;2023-09-07T13:52:20;31.40;44.70
55135;DHT22;41031;44.750;11.308;2023-09-07T13:54:47;31.40;44.90
55135;DHT22;41031;44.750;11.308;2023-09-07T13:57:14;31.40;44.70
55135;DHT22;41031;44.750;11.308;2023-09-07T13:59:41;31.40;44.80
55135;DHT22;41031;44.750;11.308;2023-09-07T14:02:08;31.40;44.70
55135;DHT22;41031;44.750;11.308;2023-09-07T14:04:35;31.40;44.10
55135;DHT22;41031;44.750;11.308;2023-09-07T14:07:02;31.40;44.40
55135;DHT22;41031;44.750;11.308;2023-09-07T14:09:29;31.30;44.10
55135;DHT22;41031;44.750;11.308;2023-09-07T14:11:56;31.30;44.50
55135;DHT22;41031;44.750;11.308;2023-09-07T14:14:23;31.20;44.20
55135;DHT22;41031;44.750;11.308;2023-09-07T14:16:50;31.20;44.90
55135;DHT22;41031;44.750;11.308;2023-09-07T14:19:22;31.20;44.50
55135;DHT22;41031;44.750;11.308;2023-09-07T14:21:51;31.20;45.30
55135;DHT22;41031;44.750;11.308;2023-09-07T14:24:18;31.20;44.70
55135;DHT22;41031;44.750;11.308;2023-09-07T14:26:44;31.10;44.70
55135;DHT22;41031;44.750;11.308;2023-09-07T14:29:12;31.10;44.90
55135;DHT22;41031;44.750;11.308;2023-09-07T14:31:39;31.10;43.50
55135;DHT22;41031;44.750;11.308;2023-09-07T14:34:10;31.10;44.60
55135;DHT22;41031;44.750;11.308;2023-09-07T14:36:38;31.00;44.30
55135;DHT22;41031;44.750;11.308;2023-09-07T14:39:08;31.00;44.40
55135;DHT22;41031;44.750;11.308;2023-09-07T14:41:36;31.00;44.80
55135;DHT22;41031;44.750;11.308;2023-09-07T14:44:03;31.00;44.70
55135;DHT22;41031;44.750;11.308;2023-09-07T14:46:30;30.90;44.90
55135;DHT22;41031;44.750;11.308;2023-09-07T14:48:58;30.90;44.90
55135;DHT22;41031;44.750;11.308;2023-09-07T14:51:26;30.90;44.80
55135;DHT22;41031;44.750;11.308;2023-09-07T14:53:54;30.80;44.40
55135;DHT22;41031;44.750;11.308;2023-09-07T14:56:21;30.90;44.50
55135;DHT22;41031;44.750;11.308;2023-09-07T14:58:48;30.80;44.80
55135;DHT22;41031;44.750;11.308;2023-09-07T15:01:15;30.80;44.50
55135;DHT22;41031;44.750;11.308;2023-09-07T15:03:42;30.80;44.60
55135;DHT22;41031;44.750;11.308;2023-09-07T15:06:10;30.70;44.60
55135;DHT22;41031;44.750;11.308;2023-09-07T15:08:39;30.70;44.70
55135;DHT22;41031;44.750;11.308;2023-09-07T15:11:06;30.70;45.00
55135;DHT22;41031;44.750;11.308;2023-09-07T15:13:34;30.60;45.60
55135;DHT22;41031;44.750;11.308;2023-09-07T15:16:01;30.60;45.20
55135;DHT22;41031;44.750;11.308;2023-09-07T15:18:29;30.60;45.20
55135;DHT22;41031;44.750;11.308;2023-09-07T15:20:56;30.50;45.30
55135;DHT22;41031;44.750;11.308;2023-09-07T15:23:23;30.50;45.20
55135;DHT22;41031;44.750;11.308;2023-09-07T15:25:50;30.40;44.50